Airport Name : Trabzon

Other Name : Trabzon

ICAO : LTCG

IATA : TZX

FAA :

Latitude : 40.995108

Longitude : 39.789728

Country : Türkiye

Local Date and Time : 30 May 2024 08:46

 

TAF (Terminal Aerodrome Forecast)

TAF AMD LTCG 300442Z 3004/3024 VRB02KT 9999 SCT016 SCT035 TEMPO 3008/3012 BKN008 BKN025 TEMPO 3012/3016 -TSRA SCT008 FEW020CB BKN028 TEMPO 3016/3020 4000 -DZ BR BKN006 BKN028

 

METAR (METeorological Aerodrome Report)

LTCG 300520Z VRB03KT 9999 SCT016 BKN035 21/17 Q1012 NOSIG RMK RWY29 34004KT

LTCG 300450Z 35003KT 280V080 9999 SCT016 SCT035 21/17 Q1012 NOSIG RMK RWY29 35003KT

LTCG 300420Z 02003KT 310V080 9999 SCT016 21/17 Q1011 NOSIG RMK RWY29 VRB02KT

LTCG 300350Z VRB03KT 9999 SCT016 SCT035 20/17 Q1011 NOSIG RMK RWY29 VRB02KT

LTCG 300320Z VRB02KT 9999 SCT016 SCT035 20/16 Q1011 NOSIG RMK RWY29 VRB02KT

LTCG 300250Z VRB02KT 9999 SCT016 BKN028 20/16 Q1011 TEMPO BKN008 BKN025 RMK RWY29 VRB01KT

LTCG 300220Z VRB02KT 9999 SCT016 BKN028 19/16 Q1011 TEMPO BKN008 BKN025 RMK RWY29 VRB02KT

LTCG 300150Z 08003KT 040V110 9999 SCT016 BKN028 19/17 Q1011 TEMPO BKN008 BKN025 RMK RWY29 11002KT